Terminal Aerodrome Forecast
Issued by NWS

Home | Current Version | Previous Version | Text Only | Print | Product List | Glossary On
Versions: 1 2 3 4 5 6 7 8 9 10 11 12 13 14 15 16 17 18
588
FTPA31 PHFO 211735
TAFHMK
TAF
PHMK 211735Z 2118/2218 04008G14KT P6SM FEW020 SCT040
     FM212100 04014G24KT P6SM FEW020 SCT040
     FM220600 04008G14KT P6SM FEW020 SCT040=

USA.gov is the U.S. government's official web portal to all federal, state and local government web resources and services.